createdAt,value
2022-10-15T00:01:54.323Z,21.57
2022-10-15T00:04:24.517Z,20.00
2022-10-15T00:06:53.376Z,21.60
2022-10-15T00:09:22.221Z,20.60
2022-10-15T00:11:51.221Z,20.63
2022-10-15T00:14:20.088Z,25.30
2022-10-15T00:16:48.996Z,20.87
2022-10-15T00:19:17.899Z,21.57
2022-10-15T00:21:48.325Z,23.03
2022-10-15T00:24:17.202Z,22.37
2022-10-15T00:26:45.939Z,21.67
2022-10-15T00:29:14.756Z,22.13
2022-10-15T00:31:43.810Z,22.23
2022-10-15T00:34:14.395Z,21.97
2022-10-15T00:36:43.106Z,24.03
2022-10-15T00:39:13.907Z,21.33
2022-10-15T00:41:45.435Z,23.23
2022-10-15T00:44:49.492Z,29.30
2022-10-15T00:47:21.833Z,24.33
2022-10-15T00:49:56.539Z,22.70
2022-10-15T00:52:31.340Z,24.30
2022-10-15T00:55:08.206Z,25.63
2022-10-15T00:57:56.935Z,23.00
2022-10-15T01:00:26.000Z,25.07
2022-10-15T01:02:54.900Z,26.43
2022-10-15T01:05:24.851Z,24.50
2022-10-15T01:07:53.857Z,23.40
2022-10-15T01:10:29.230Z,26.53
2022-10-15T01:13:05.925Z,23.93
2022-10-15T01:15:59.793Z,23.57
2022-10-15T01:18:33.949Z,24.37
2022-10-15T01:21:09.852Z,23.33
2022-10-15T01:24:14.223Z,22.10
2022-10-15T01:27:10.999Z,22.97
2022-10-15T01:30:24.822Z,30.97
2022-10-15T01:33:23.471Z,23.60
2022-10-15T01:35:55.768Z,26.03
2022-10-15T01:38:34.559Z,24.57
2022-10-15T01:41:10.727Z,24.50
2022-10-15T01:43:46.080Z,27.27
2022-10-15T01:46:33.547Z,25.73
2022-10-15T01:49:08.488Z,27.83
2022-10-15T01:51:40.285Z,29.00
2022-10-15T01:54:13.162Z,32.50
2022-10-15T01:56:49.848Z,25.33
2022-10-15T01:59:24.080Z,26.10
2022-10-15T02:01:55.013Z,24.90
2022-10-15T02:04:29.733Z,26.60
2022-10-15T02:07:04.971Z,24.07
2022-10-15T02:09:46.697Z,23.73
2022-10-15T02:12:39.280Z,27.27
2022-10-15T02:15:15.450Z,26.70
2022-10-15T02:17:51.326Z,26.87
2022-10-15T02:20:24.364Z,22.77
2022-10-15T02:23:01.335Z,27.63
2022-10-15T02:25:30.568Z,23.73
2022-10-15T02:28:01.961Z,26.27
2022-10-15T02:30:31.595Z,26.27
2022-10-15T02:33:01.297Z,28.53
2022-10-15T02:35:31.817Z,26.60
2022-10-15T02:38:06.891Z,23.87
2022-10-15T02:40:55.400Z,27.57
2022-10-15T02:43:24.685Z,27.63
2022-10-15T02:45:53.625Z,25.83
2022-10-15T02:48:23.373Z,30.50
2022-10-15T02:50:53.658Z,27.03
2022-10-15T02:53:22.503Z,27.17
2022-10-15T02:55:51.303Z,30.00
2022-10-15T02:58:20.226Z,29.90
2022-10-15T03:00:49.121Z,26.10
2022-10-15T03:03:17.865Z,24.50
2022-10-15T03:05:47.359Z,24.10
2022-10-15T03:08:18.007Z,30.90
2022-10-15T03:10:48.040Z,25.77
2022-10-15T03:13:17.047Z,25.30
2022-10-15T03:15:50.724Z,26.33
2022-10-15T03:18:19.715Z,28.60
2022-10-15T03:20:55.828Z,27.70
2022-10-15T03:23:26.573Z,28.47
2022-10-15T03:26:06.150Z,29.20
2022-10-15T03:28:35.862Z,29.00
2022-10-15T03:31:04.987Z,27.93
2022-10-15T03:33:34.574Z,29.17
2022-10-15T03:36:04.252Z,29.77
2022-10-15T03:38:34.826Z,31.77
2022-10-15T03:41:06.033Z,28.50
2022-10-15T03:43:42.631Z,28.60
2022-10-15T03:46:12.491Z,29.40
2022-10-15T03:48:44.964Z,31.30
2022-10-15T03:51:18.526Z,30.80
2022-10-15T03:53:56.466Z,31.43
2022-10-15T03:56:25.524Z,30.03
2022-10-15T03:58:58.669Z,34.03
2022-10-15T04:01:27.666Z,31.70
2022-10-15T04:03:57.726Z,31.77
2022-10-15T04:06:28.076Z,33.23
2022-10-15T04:08:58.269Z,33.23
2022-10-15T04:11:46.053Z,32.07
2022-10-15T04:14:15.927Z,30.90
2022-10-15T04:16:45.559Z,31.40
2022-10-15T04:19:19.882Z,32.43
2022-10-15T04:21:59.223Z,32.80
2022-10-15T04:24:45.547Z,30.33
2022-10-15T04:27:33.059Z,35.60
2022-10-15T04:30:09.740Z,36.17
2022-10-15T04:32:42.468Z,32.70
2022-10-15T04:35:12.519Z,31.63
2022-10-15T04:38:00.130Z,34.20
2022-10-15T04:40:36.187Z,31.80
2022-10-15T04:43:23.429Z,34.03
2022-10-15T04:45:58.915Z,38.33
2022-10-15T04:48:30.818Z,37.83
2022-10-15T04:51:05.546Z,35.60
2022-10-15T04:53:45.461Z,38.03
2022-10-15T04:56:18.158Z,38.40
2022-10-15T04:58:49.320Z,37.20
2022-10-15T05:01:21.286Z,39.27
2022-10-15T05:04:16.478Z,39.00
2022-10-15T05:06:45.277Z,40.20
2022-10-15T05:09:21.211Z,42.83
2022-10-15T05:11:55.599Z,46.77
2022-10-15T05:14:24.614Z,47.30
2022-10-15T05:17:06.681Z,44.87
2022-10-15T05:19:41.164Z,53.83
2022-10-15T05:22:17.254Z,41.03
2022-10-15T05:24:52.992Z,33.00
2022-10-15T05:27:37.345Z,23.90
2022-10-15T05:30:08.428Z,17.07
2022-10-15T05:32:43.253Z,15.57
2022-10-15T05:35:14.327Z,16.60
2022-10-15T05:37:55.136Z,16.77
2022-10-15T05:40:25.414Z,15.90
2022-10-15T05:43:15.942Z,18.40
2022-10-15T05:45:45.004Z,21.37
2022-10-15T05:48:15.645Z,21.43
2022-10-15T05:50:44.872Z,20.50
2022-10-15T05:53:20.945Z,20.47
2022-10-15T05:55:54.806Z,24.73
2022-10-15T05:58:33.376Z,25.87
2022-10-15T06:01:07.109Z,27.27
2022-10-15T06:03:40.395Z,27.23
2022-10-15T06:06:16.055Z,28.83
2022-10-15T06:08:45.149Z,28.27
2022-10-15T06:11:13.955Z,39.83
2022-10-15T06:13:45.461Z,37.77
2022-10-15T06:16:19.518Z,39.57
2022-10-15T06:18:52.725Z,32.50
2022-10-15T06:21:21.611Z,26.37
2022-10-15T06:23:50.390Z,23.33
2022-10-15T06:26:19.341Z,26.57
2022-10-15T06:28:51.425Z,35.23
2022-10-15T06:31:20.800Z,30.13
2022-10-15T06:33:49.754Z,29.77
2022-10-15T06:36:18.498Z,37.07
2022-10-15T06:38:49.069Z,34.83
2022-10-15T06:41:17.952Z,26.03
2022-10-15T06:43:47.310Z,32.37
2022-10-15T06:46:17.879Z,22.03
2022-10-15T06:48:46.779Z,20.60
2022-10-15T06:51:15.602Z,19.53
2022-10-15T06:53:51.602Z,20.87
2022-10-15T06:56:38.986Z,19.57
2022-10-15T06:59:07.896Z,17.63
2022-10-15T07:01:41.359Z,18.37
2022-10-15T07:04:11.527Z,13.57
2022-10-15T07:06:41.759Z,14.00
2022-10-15T07:09:10.789Z,13.33
2022-10-15T07:11:39.578Z,12.50
2022-10-15T07:14:08.470Z,12.13
2022-10-15T07:16:39.773Z,11.73
2022-10-15T07:19:08.653Z,10.40
2022-10-15T07:21:37.526Z,18.77
2022-10-15T07:24:06.983Z,11.63
2022-10-15T07:26:36.148Z,17.03
2022-10-15T07:29:05.378Z,17.10
2022-10-15T07:31:34.524Z,14.67
2022-10-15T07:34:08.251Z,12.63
2022-10-15T07:36:37.165Z,22.23
2022-10-15T07:39:05.968Z,13.13
2022-10-15T07:41:34.804Z,22.17
2022-10-15T07:44:22.395Z,14.00
2022-10-15T07:46:51.176Z,11.83
2022-10-15T07:49:21.429Z,10.33
2022-10-15T07:51:50.381Z,19.73
2022-10-15T07:54:19.077Z,12.57
2022-10-15T07:56:48.025Z,11.90
2022-10-15T07:59:16.863Z,13.47
2022-10-15T08:01:48.431Z,18.70
2022-10-15T08:04:21.824Z,9.97
2022-10-15T08:06:51.378Z,11.50
2022-10-15T08:09:20.506Z,10.97
2022-10-15T08:11:49.390Z,9.87
2022-10-15T08:14:19.550Z,10.07
2022-10-15T08:16:48.479Z,26.63
2022-10-15T08:19:18.398Z,13.37
2022-10-15T08:21:48.772Z,13.33
2022-10-15T08:24:17.695Z,10.97
2022-10-15T08:26:46.546Z,31.33
2022-10-15T08:29:15.615Z,14.53
2022-10-15T08:32:02.850Z,14.90
2022-10-15T08:34:32.677Z,15.93
2022-10-15T08:37:04.481Z,43.43
2022-10-15T08:39:33.587Z,56.13
2022-10-15T08:42:04.425Z,54.67
2022-10-15T08:44:43.845Z,44.47
2022-10-15T08:47:24.856Z,48.37
2022-10-15T08:49:56.629Z,31.57
2022-10-15T08:52:41.240Z,60.93
2022-10-15T08:55:17.388Z,27.50
2022-10-15T08:57:50.795Z,39.30
2022-10-15T09:00:23.385Z,33.63
2022-10-15T09:03:02.728Z,24.90
2022-10-15T09:05:40.713Z,29.67
2022-10-15T09:08:21.583Z,32.10
2022-10-15T09:10:54.039Z,49.37
2022-10-15T09:13:27.909Z,42.17
2022-10-15T09:16:01.605Z,30.07
2022-10-15T09:18:33.719Z,38.07
2022-10-15T09:21:03.863Z,37.63
2022-10-15T09:23:36.182Z,36.40
2022-10-15T09:26:11.162Z,40.80
2022-10-15T09:28:46.474Z,37.30
2022-10-15T09:31:23.320Z,37.20
2022-10-15T09:33:56.225Z,41.70
2022-10-15T09:36:49.750Z,30.97
2022-10-15T09:39:45.078Z,33.03
2022-10-15T09:42:27.377Z,41.73
2022-10-15T09:44:59.057Z,61.13
2022-10-15T09:47:30.469Z,78.63
2022-10-15T09:50:03.012Z,46.40
2022-10-15T09:52:58.106Z,42.03
2022-10-15T09:55:38.792Z,48.40
2022-10-15T09:58:30.534Z,41.43
2022-10-15T10:01:01.754Z,30.30
2022-10-15T10:03:37.548Z,28.07
2022-10-15T10:06:09.755Z,30.93
2022-10-15T10:08:41.835Z,34.07
2022-10-15T10:11:14.079Z,39.87
2022-10-15T10:13:52.092Z,35.30
2022-10-15T10:16:23.687Z,35.73
2022-10-15T10:19:09.180Z,37.07
2022-10-15T10:21:40.366Z,25.73
2022-10-15T10:24:28.711Z,24.60
2022-10-15T10:26:59.979Z,29.73
2022-10-15T10:29:34.170Z,25.80
2022-10-15T10:32:13.666Z,23.47
2022-10-15T10:34:50.063Z,17.97
2022-10-15T10:37:21.762Z,17.00
2022-10-15T10:39:55.940Z,20.67
2022-10-15T10:42:38.417Z,17.77
2022-10-15T10:45:22.116Z,20.57
2022-10-15T10:47:51.133Z,21.00
2022-10-15T10:50:30.884Z,24.83
2022-10-15T10:53:00.291Z,22.80
2022-10-15T10:55:38.734Z,29.17
2022-10-15T10:58:20.139Z,29.23
2022-10-15T11:00:53.760Z,25.03
2022-10-15T11:03:31.888Z,24.60
2022-10-15T11:06:10.432Z,17.73
2022-10-15T11:09:10.118Z,19.23
2022-10-15T11:11:44.365Z,17.77
2022-10-15T11:14:25.308Z,20.77
2022-10-15T11:17:01.641Z,20.60
2022-10-15T11:20:20.725Z,25.23
2022-10-15T11:23:11.208Z,20.43
2022-10-15T11:25:47.782Z,21.10
2022-10-15T11:28:28.971Z,19.73
2022-10-15T11:31:11.373Z,19.33
2022-10-15T11:33:57.789Z,14.87
2022-10-15T11:36:40.754Z,13.50
2022-10-15T11:39:33.585Z,16.03
2022-10-15T11:42:14.480Z,20.37
2022-10-15T11:45:01.462Z,17.17
2022-10-15T11:47:41.905Z,15.77
2022-10-15T11:50:23.420Z,16.93
2022-10-15T11:53:07.518Z,20.17
2022-10-15T11:55:43.857Z,17.90
2022-10-15T11:58:18.355Z,18.47
2022-10-15T12:00:51.737Z,19.87
2022-10-15T12:03:26.471Z,16.40
2022-10-15T12:05:58.414Z,14.13
2022-10-15T12:08:32.130Z,17.57
2022-10-15T12:11:15.089Z,19.23
2022-10-15T12:13:48.674Z,34.07
2022-10-15T12:16:27.593Z,28.30
2022-10-15T12:19:09.275Z,36.90
2022-10-15T12:21:41.318Z,32.77
2022-10-15T12:24:54.508Z,16.13
2022-10-15T12:27:30.478Z,16.17
2022-10-15T12:30:24.012Z,23.00
2022-10-15T12:32:55.831Z,17.57
2022-10-15T12:35:36.493Z,16.20
2022-10-15T12:38:26.547Z,18.37
2022-10-15T12:41:01.588Z,18.07
2022-10-15T12:43:32.789Z,32.00
2022-10-15T12:46:04.719Z,26.00
2022-10-15T12:48:37.907Z,16.40
2022-10-15T12:51:35.542Z,14.67
2022-10-15T12:54:04.541Z,16.23
2022-10-15T12:56:42.466Z,13.53
2022-10-15T12:59:32.633Z,17.43
2022-10-15T13:02:03.957Z,16.53
2022-10-15T13:04:41.073Z,14.70
2022-10-15T13:07:16.427Z,13.60
2022-10-15T13:09:45.442Z,16.10
2022-10-15T13:12:24.981Z,15.53
2022-10-15T13:14:59.460Z,12.10
2022-10-15T13:17:28.625Z,15.13
2022-10-15T13:20:00.712Z,21.00
2022-10-15T13:22:32.563Z,35.67
2022-10-15T13:25:02.020Z,20.60
2022-10-15T13:27:32.450Z,18.67
2022-10-15T13:30:02.555Z,39.30
2022-10-15T13:32:35.217Z,40.50
2022-10-15T13:35:11.726Z,34.23
2022-10-15T13:37:44.365Z,32.03
2022-10-15T13:40:21.867Z,14.80
2022-10-15T13:43:18.771Z,24.67
2022-10-15T13:45:52.508Z,29.60
2022-10-15T13:48:23.623Z,52.67
2022-10-15T13:50:54.763Z,65.83
2022-10-15T13:53:30.388Z,32.63
2022-10-15T13:56:01.508Z,38.37
